createdAt,value
2017-05-29T00:01:21.733Z,24.93
2017-05-29T00:02:23.375Z,24.91
2017-05-29T00:03:25.050Z,24.89
2017-05-29T00:04:26.640Z,24.98
2017-05-29T00:05:28.278Z,24.92
2017-05-29T00:06:29.976Z,24.91
2017-05-29T00:07:31.659Z,24.89
2017-05-29T00:08:33.317Z,24.91
2017-05-29T00:09:34.941Z,24.96
2017-05-29T00:10:36.590Z,24.89
2017-05-29T00:11:38.254Z,24.91
2017-05-29T00:12:39.909Z,24.84
2017-05-29T00:13:41.619Z,24.89
2017-05-29T00:14:43.295Z,24.80
2017-05-29T00:15:44.928Z,24.89
2017-05-29T00:16:46.579Z,24.81
2017-05-29T00:17:48.246Z,24.81
2017-05-29T00:18:49.952Z,24.76
2017-05-29T00:19:51.588Z,24.80
2017-05-29T00:20:53.206Z,24.84
2017-05-29T00:21:54.889Z,24.85
2017-05-29T00:22:56.512Z,24.80
2017-05-29T00:23:58.227Z,24.85
2017-05-29T00:24:59.925Z,24.70
2017-05-29T00:26:01.580Z,24.74
2017-05-29T00:27:03.223Z,24.77
2017-05-29T00:28:04.867Z,24.80
2017-05-29T00:29:06.598Z,24.74
2017-05-29T00:30:08.303Z,24.78
2017-05-29T00:31:09.948Z,24.84
2017-05-29T00:32:11.572Z,24.68
2017-05-29T00:33:13.223Z,24.78
2017-05-29T00:34:14.942Z,24.81
2017-05-29T00:35:16.694Z,24.77
2017-05-29T00:36:18.277Z,24.69
2017-05-29T00:37:19.971Z,24.69
2017-05-29T00:38:21.553Z,24.73
2017-05-29T00:39:23.180Z,24.70
2017-05-29T00:40:24.824Z,24.76
2017-05-29T00:41:26.448Z,24.70
2017-05-29T00:42:28.127Z,24.76
2017-05-29T00:43:29.832Z,24.77
2017-05-29T00:44:31.455Z,24.69
2017-05-29T00:45:33.066Z,24.54
2017-05-29T00:46:34.723Z,24.55
2017-05-29T00:47:36.404Z,24.55
2017-05-29T00:48:38.076Z,24.69
2017-05-29T00:49:39.717Z,24.55
2017-05-29T00:50:41.370Z,24.61
2017-05-29T00:51:43.051Z,24.55
2017-05-29T00:52:44.800Z,24.70
2017-05-29T00:53:46.472Z,24.55
2017-05-29T00:54:48.097Z,24.60
2017-05-29T00:55:49.809Z,24.54
2017-05-29T00:56:51.471Z,24.60
2017-05-29T00:57:53.201Z,24.54
2017-05-29T00:58:54.866Z,24.57
2017-05-29T00:59:56.594Z,24.55
2017-05-29T01:00:58.238Z,24.53
2017-05-29T01:01:59.894Z,24.53
2017-05-29T01:03:01.682Z,24.51
2017-05-29T01:04:03.376Z,24.55
2017-05-29T01:05:05.036Z,24.54
2017-05-29T01:06:06.692Z,24.60
2017-05-29T01:07:08.352Z,24.50
2017-05-29T01:08:10.047Z,24.51
2017-05-29T01:09:11.753Z,24.50
2017-05-29T01:10:13.430Z,24.45
2017-05-29T01:11:15.108Z,24.45
2017-05-29T01:12:16.798Z,24.48
2017-05-29T01:13:18.549Z,24.50
2017-05-29T01:14:20.189Z,24.54
2017-05-29T01:15:21.913Z,24.45
2017-05-29T01:16:23.598Z,24.43
2017-05-29T01:17:25.245Z,24.50
2017-05-29T01:18:26.952Z,24.47
2017-05-29T01:19:28.597Z,24.43
2017-05-29T01:21:09.752Z,24.40
2017-05-29T01:22:11.397Z,24.43
2017-05-29T01:23:13.075Z,24.42
2017-05-29T01:24:14.729Z,24.36
2017-05-29T01:25:16.421Z,24.40
2017-05-29T01:26:18.167Z,24.36
2017-05-29T01:27:19.829Z,24.40
2017-05-29T01:28:21.493Z,24.36
2017-05-29T01:29:23.173Z,24.42
2017-05-29T01:30:24.821Z,24.43
2017-05-29T01:31:26.544Z,24.40
2017-05-29T01:32:28.241Z,24.38
2017-05-29T01:33:29.933Z,24.39
2017-05-29T01:34:31.663Z,24.45
2017-05-29T01:35:33.364Z,24.43
2017-05-29T01:36:35.114Z,24.33
2017-05-29T01:37:36.803Z,24.39
2017-05-29T01:38:38.522Z,24.30
2017-05-29T01:39:40.153Z,24.36
2017-05-29T01:40:41.865Z,24.32
2017-05-29T01:41:43.570Z,24.33
2017-05-29T01:42:45.219Z,24.29
2017-05-29T01:43:46.911Z,24.26
2017-05-29T01:44:48.625Z,24.20
2017-05-29T01:45:50.373Z,24.23
2017-05-29T01:46:52.045Z,24.21
2017-05-29T01:47:53.727Z,24.17
2017-05-29T01:48:55.479Z,24.16
2017-05-29T01:49:57.154Z,24.18
2017-05-29T01:50:58.825Z,24.28
2017-05-29T01:52:00.471Z,24.16
2017-05-29T01:53:02.125Z,24.17
2017-05-29T01:54:03.835Z,24.20
2017-05-29T01:55:05.477Z,24.17
2017-05-29T01:56:07.100Z,24.16
2017-05-29T01:57:08.773Z,24.14
2017-05-29T01:58:10.479Z,24.16
2017-05-29T01:59:12.157Z,24.11
2017-05-29T02:00:13.799Z,24.21
2017-05-29T02:01:15.477Z,24.18
2017-05-29T02:02:17.134Z,24.16
2017-05-29T02:03:19.756Z,24.14
2017-05-29T02:04:21.462Z,24.17
2017-05-29T02:05:23.136Z,24.16
2017-05-29T02:06:24.821Z,24.06
2017-05-29T02:07:26.458Z,24.14
2017-05-29T02:08:28.144Z,24.10
2017-05-29T02:09:29.833Z,24.08
2017-05-29T02:10:31.543Z,24.06
2017-05-29T02:11:33.188Z,24.08
2017-05-29T02:12:34.824Z,24.10
2017-05-29T02:13:36.470Z,24.10
2017-05-29T02:14:38.118Z,24.05
2017-05-29T02:15:39.749Z,23.95
2017-05-29T02:16:41.385Z,23.98
2017-05-29T02:17:43.097Z,24.02
2017-05-29T02:18:44.706Z,24.03
2017-05-29T02:19:46.357Z,23.98
2017-05-29T02:20:47.979Z,24.05
2017-05-29T02:21:49.604Z,23.98
2017-05-29T02:22:51.340Z,23.99
2017-05-29T02:23:52.913Z,23.99
2017-05-29T02:24:54.582Z,23.99
2017-05-29T02:25:56.200Z,23.99
2017-05-29T02:26:57.846Z,23.99
2017-05-29T02:27:59.520Z,23.88
2017-05-29T02:29:01.183Z,24.01
2017-05-29T02:30:02.830Z,23.96
2017-05-29T02:31:04.483Z,23.98
2017-05-29T02:32:06.099Z,23.98
2017-05-29T02:33:07.799Z,23.84
2017-05-29T02:34:09.401Z,23.88
2017-05-29T02:35:11.074Z,23.93
2017-05-29T02:36:12.738Z,23.84
2017-05-29T02:37:14.393Z,23.98
2017-05-29T02:38:16.081Z,23.91
2017-05-29T02:39:17.731Z,23.92
2017-05-29T02:40:19.349Z,23.84
2017-05-29T02:41:21.014Z,23.83
2017-05-29T02:42:22.709Z,23.86
2017-05-29T02:43:24.426Z,23.84
2017-05-29T02:44:26.050Z,23.95
2017-05-29T02:45:27.705Z,23.87
2017-05-29T02:46:29.325Z,23.91
2017-05-29T02:47:30.945Z,23.88
2017-05-29T02:48:32.623Z,23.87
2017-05-29T02:49:34.275Z,23.93
2017-05-29T02:50:35.882Z,23.91
2017-05-29T02:51:37.503Z,23.84
2017-05-29T02:52:39.116Z,23.76
2017-05-29T02:53:40.799Z,23.80
2017-05-29T02:54:42.413Z,23.77
2017-05-29T02:55:44.041Z,23.81
2017-05-29T02:56:45.702Z,23.86
2017-05-29T02:57:47.354Z,23.77
2017-05-29T02:58:49.050Z,23.74
2017-05-29T02:59:50.661Z,23.76
2017-05-29T03:00:52.339Z,23.77
2017-05-29T03:01:53.981Z,23.84
2017-05-29T03:02:55.622Z,23.78
2017-05-29T03:04:36.777Z,23.77
2017-05-29T03:05:38.480Z,23.81
2017-05-29T03:06:40.110Z,23.71
2017-05-29T03:07:41.828Z,23.74
2017-05-29T03:08:43.501Z,23.81
2017-05-29T03:09:45.185Z,23.74
2017-05-29T03:10:46.836Z,23.77
2017-05-29T03:11:48.467Z,23.78
2017-05-29T03:12:50.141Z,23.77
2017-05-29T03:13:51.866Z,23.77
2017-05-29T03:14:53.490Z,23.77
2017-05-29T03:15:55.208Z,23.78
2017-05-29T03:16:56.893Z,23.80
2017-05-29T03:17:58.572Z,23.77
2017-05-29T03:19:00.315Z,23.73
2017-05-29T03:20:01.983Z,23.76
2017-05-29T03:21:03.647Z,23.76
2017-05-29T03:22:05.285Z,23.77
2017-05-29T03:23:06.927Z,23.66
2017-05-29T03:24:08.668Z,23.78
2017-05-29T03:25:10.321Z,23.78
2017-05-29T03:26:12.018Z,23.73
2017-05-29T03:27:13.705Z,23.69
2017-05-29T03:28:15.413Z,23.77
2017-05-29T03:29:17.444Z,23.73
2017-05-29T03:30:19.138Z,23.62
2017-05-29T03:31:20.837Z,23.73
2017-05-29T03:32:22.505Z,23.71
2017-05-29T03:33:24.227Z,23.66
2017-05-29T03:35:05.420Z,23.74
2017-05-29T03:36:07.061Z,23.66
2017-05-29T03:37:48.231Z,23.62
2017-05-29T03:38:49.875Z,23.68
2017-05-29T03:39:51.494Z,23.56
2017-05-29T03:40:53.126Z,23.55
2017-05-29T03:41:54.738Z,23.58
2017-05-29T03:42:56.391Z,23.62
2017-05-29T03:43:58.020Z,23.56
2017-05-29T03:44:59.672Z,23.59
2017-05-29T03:46:01.322Z,23.58
2017-05-29T03:47:03.003Z,23.63
2017-05-29T03:48:04.712Z,23.63
2017-05-29T03:49:06.509Z,23.61
2017-05-29T03:50:08.212Z,23.56
2017-05-29T03:51:09.950Z,23.59
2017-05-29T03:52:11.648Z,23.63
2017-05-29T03:53:13.406Z,23.51
2017-05-29T03:54:15.060Z,23.55
2017-05-29T03:55:16.738Z,23.48
2017-05-29T03:56:18.598Z,23.48
2017-05-29T03:57:20.272Z,23.47
2017-05-29T03:58:22.085Z,23.46
2017-05-29T03:59:23.780Z,23.59
2017-05-29T04:00:25.482Z,23.61
2017-05-29T04:01:27.173Z,23.65
2017-05-29T04:02:28.872Z,23.59
2017-05-29T04:03:30.602Z,23.55
2017-05-29T04:04:32.296Z,23.58
2017-05-29T04:05:33.987Z,23.54
2017-05-29T04:06:35.657Z,23.55
2017-05-29T04:07:37.253Z,23.54
2017-05-29T04:08:38.936Z,23.54
2017-05-29T04:09:40.642Z,23.51
2017-05-29T04:10:42.269Z,23.44
2017-05-29T04:11:43.931Z,23.56
2017-05-29T04:12:45.591Z,23.48
2017-05-29T04:13:47.325Z,23.65
2017-05-29T04:14:49.045Z,23.51
2017-05-29T04:15:50.720Z,23.51
2017-05-29T04:16:52.358Z,23.59
2017-05-29T04:17:54.033Z,23.61
2017-05-29T04:18:55.690Z,23.54
2017-05-29T04:19:57.353Z,23.56
2017-05-29T04:20:59.002Z,23.62
2017-05-29T04:22:00.668Z,23.61
2017-05-29T04:23:02.321Z,23.58
2017-05-29T04:24:04.026Z,23.56
2017-05-29T04:25:05.742Z,23.59
2017-05-29T04:26:07.390Z,23.58
2017-05-29T04:27:09.060Z,23.55
2017-05-29T04:28:10.719Z,23.63
2017-05-29T04:29:12.429Z,23.58
2017-05-29T04:30:14.068Z,23.58
2017-05-29T04:31:15.700Z,23.58
2017-05-29T04:32:17.326Z,23.58
2017-05-29T04:33:18.985Z,23.63
2017-05-29T04:34:20.736Z,23.73
2017-05-29T04:35:22.404Z,23.74
2017-05-29T04:36:24.072Z,23.71
2017-05-29T04:37:25.745Z,23.78
2017-05-29T04:38:27.392Z,23.77
2017-05-29T04:39:29.864Z,23.77
2017-05-29T04:40:31.553Z,23.80
2017-05-29T04:41:33.189Z,23.86
2017-05-29T04:42:34.900Z,23.91
2017-05-29T04:43:36.504Z,23.88
2017-05-29T04:44:38.266Z,23.93
2017-05-29T04:45:39.972Z,23.93
2017-05-29T04:47:21.208Z,23.96
2017-05-29T04:49:03.443Z,23.96
2017-05-29T04:50:05.143Z,24.08
2017-05-29T04:51:06.846Z,24.13
2017-05-29T04:52:08.528Z,24.14
2017-05-29T04:53:10.339Z,24.14
2017-05-29T04:54:12.037Z,24.20
2017-05-29T04:55:13.675Z,24.17
2017-05-29T04:56:15.343Z,24.32
2017-05-29T04:57:16.986Z,24.26
2017-05-29T04:58:18.728Z,24.26
2017-05-29T04:59:20.444Z,24.33
2017-05-29T05:00:22.121Z,24.40
2017-05-29T05:01:23.814Z,24.30
2017-05-29T05:02:25.485Z,24.43
2017-05-29T05:03:27.531Z,24.38
2017-05-29T05:04:29.238Z,24.48
2017-05-29T05:05:30.896Z,24.39
2017-05-29T05:06:32.551Z,24.50
2017-05-29T05:07:34.191Z,24.53
2017-05-29T05:08:35.892Z,24.58
2017-05-29T05:09:37.656Z,24.58
2017-05-29T05:10:39.401Z,24.60
2017-05-29T05:11:41.151Z,24.61
2017-05-29T05:12:42.841Z,24.63
2017-05-29T05:13:44.643Z,24.65
2017-05-29T05:14:46.441Z,24.54
2017-05-29T05:15:48.195Z,24.55
2017-05-29T05:16:49.892Z,24.68
2017-05-29T05:17:51.544Z,24.78
2017-05-29T05:18:53.218Z,24.74
2017-05-29T05:19:54.923Z,24.73
2017-05-29T05:20:56.597Z,24.78
2017-05-29T05:21:58.318Z,24.89
2017-05-29T05:23:00.047Z,24.84
2017-05-29T05:24:01.766Z,24.81
2017-05-29T05:25:05.335Z,24.92
2017-05-29T05:26:07.034Z,24.89
2017-05-29T05:27:08.745Z,24.93
2017-05-29T05:28:10.548Z,25.04
2017-05-29T05:29:12.216Z,25.04
2017-05-29T05:30:13.919Z,25.04
2017-05-29T05:31:15.629Z,25.10
2017-05-29T05:32:17.316Z,25.14
2017-05-29T05:33:19.970Z,25.14
2017-05-29T05:34:21.692Z,25.21
2017-05-29T05:35:23.394Z,25.23
2017-05-29T05:36:25.170Z,25.29
2017-05-29T05:37:26.926Z,25.38
2017-05-29T05:38:28.620Z,25.40
2017-05-29T05:39:30.329Z,25.35
2017-05-29T05:40:31.989Z,25.40
2017-05-29T05:41:33.858Z,25.35
2017-05-29T05:42:35.623Z,25.36
2017-05-29T05:43:37.460Z,25.50
2017-05-29T05:44:39.798Z,25.43
2017-05-29T05:45:41.424Z,25.55
2017-05-29T05:46:43.182Z,25.51
2017-05-29T05:47:44.892Z,25.54
2017-05-29T05:48:47.362Z,25.72
2017-05-29T05:49:49.163Z,25.62
2017-05-29T05:50:50.855Z,25.63
2017-05-29T05:51:52.522Z,25.68
2017-05-29T05:52:54.181Z,25.75
2017-05-29T05:53:55.917Z,25.95
2017-05-29T05:54:57.594Z,25.90
2017-05-29T05:55:59.215Z,25.83
2017-05-29T05:57:01.046Z,25.91
2017-05-29T05:58:02.742Z,25.84
2017-05-29T05:59:04.429Z,25.99
2017-05-29T06:00:06.094Z,25.88
2017-05-29T06:01:07.757Z,25.83
2017-05-29T06:02:09.479Z,25.81
2017-05-29T06:03:11.135Z,25.75
2017-05-29T06:04:12.895Z,25.78
2017-05-29T06:05:14.729Z,25.84
2017-05-29T06:06:16.399Z,25.77
2017-05-29T06:07:18.174Z,26.05
2017-05-29T06:08:19.822Z,25.91
2017-05-29T06:09:21.532Z,25.96
2017-05-29T06:10:23.185Z,25.98
2017-05-29T06:11:24.868Z,25.91
2017-05-29T06:12:26.550Z,25.98
2017-05-29T06:13:28.570Z,25.98
2017-05-29T06:14:30.229Z,25.96
2017-05-29T06:15:31.895Z,25.96
2017-05-29T06:16:33.551Z,26.06
2017-05-29T06:17:35.248Z,25.99
2017-05-29T06:18:36.983Z,26.09
2017-05-29T06:19:38.664Z,26.15
2017-05-29T06:20:40.333Z,26.05
2017-05-29T06:21:41.997Z,25.99
2017-05-29T06:22:43.650Z,26.15
2017-05-29T06:23:45.333Z,26.21
2017-05-29T06:24:47.019Z,26.10
2017-05-29T06:25:48.651Z,26.13
2017-05-29T06:26:50.318Z,26.21
2017-05-29T06:27:51.973Z,26.22
2017-05-29T06:28:53.715Z,26.25
2017-05-29T06:29:55.402Z,26.22
2017-05-29T06:30:57.055Z,26.29
2017-05-29T06:31:58.676Z,26.28
2017-05-29T06:33:00.323Z,26.36
2017-05-29T06:34:02.028Z,26.40
2017-05-29T06:35:03.699Z,26.43
2017-05-29T06:36:05.335Z,26.40
2017-05-29T06:37:07.083Z,26.37
2017-05-29T06:38:08.700Z,26.44
2017-05-29T06:39:10.309Z,26.56
2017-05-29T06:40:12.022Z,26.51
2017-05-29T06:41:13.673Z,26.58
2017-05-29T06:42:15.282Z,26.51
2017-05-29T06:43:16.931Z,26.55
2017-05-29T06:44:18.555Z,26.53
2017-05-29T06:45:20.237Z,26.53
2017-05-29T06:46:21.891Z,26.65
2017-05-29T06:47:23.565Z,26.68
2017-05-29T06:48:25.204Z,26.63
2017-05-29T06:49:26.875Z,26.59
2017-05-29T06:50:28.597Z,26.73
2017-05-29T06:51:30.316Z,26.73
2017-05-29T06:52:32.003Z,26.78
2017-05-29T06:53:34.555Z,26.77
2017-05-29T06:54:36.495Z,26.81
2017-05-29T06:55:38.456Z,26.85
2017-05-29T06:56:40.343Z,26.83
2017-05-29T06:57:42.751Z,26.92
2017-05-29T06:58:45.293Z,26.93
2017-05-29T06:59:47.153Z,26.92
2017-05-29T07:00:48.976Z,26.95
2017-05-29T07:01:50.633Z,26.97
2017-05-29T07:02:52.318Z,27.07
2017-05-29T07:03:53.989Z,27.05
2017-05-29T07:04:55.762Z,27.05
2017-05-29T07:05:57.468Z,27.14
2017-05-29T07:06:59.121Z,27.14
2017-05-29T07:08:00.808Z,27.17
2017-05-29T07:09:02.525Z,27.17
2017-05-29T07:10:44.235Z,27.18
2017-05-29T07:11:45.926Z,27.21
2017-05-29T07:12:47.776Z,27.18
2017-05-29T07:13:52.051Z,27.25
2017-05-29T07:14:53.653Z,27.30
2017-05-29T07:15:56.298Z,27.36
2017-05-29T07:16:58.230Z,27.36
2017-05-29T07:17:59.897Z,27.33
2017-05-29T07:19:01.531Z,27.39
2017-05-29T07:20:03.182Z,27.47
2017-05-29T07:21:04.887Z,27.45
2017-05-29T07:22:06.657Z,27.45
2017-05-29T07:23:08.322Z,27.49
2017-05-29T07:24:09.953Z,27.52
2017-05-29T07:25:11.616Z,27.59
2017-05-29T07:26:13.574Z,27.58
2017-05-29T07:27:15.242Z,27.64
2017-05-29T07:28:16.909Z,27.64
2017-05-29T07:29:18.560Z,27.68
2017-05-29T07:30:20.270Z,27.64
2017-05-29T07:31:22.077Z,27.65
2017-05-29T07:32:23.806Z,27.82
2017-05-29T07:33:25.527Z,27.73
2017-05-29T07:34:27.251Z,27.77
2017-05-29T07:35:28.915Z,27.73
2017-05-29T07:36:30.666Z,27.89
2017-05-29T07:37:32.925Z,27.86
2017-05-29T07:38:34.652Z,27.93
2017-05-29T07:39:36.298Z,27.89
2017-05-29T07:40:37.987Z,28.02
2017-05-29T07:41:39.770Z,27.98
2017-05-29T07:42:43.718Z,28.01
2017-05-29T07:43:45.393Z,28.02
2017-05-29T07:44:47.089Z,28.20
2017-05-29T07:45:48.732Z,28.15
2017-05-29T07:46:50.425Z,28.15
2017-05-29T07:47:52.075Z,28.12
2017-05-29T07:48:53.746Z,28.19
2017-05-29T07:49:55.440Z,28.25
2017-05-29T07:50:57.119Z,28.22
2017-05-29T07:51:58.883Z,28.23
2017-05-29T07:53:00.585Z,28.32
2017-05-29T07:54:02.302Z,28.41
2017-05-29T07:55:03.942Z,28.37
2017-05-29T07:56:05.661Z,28.35
2017-05-29T07:57:07.459Z,28.35
2017-05-29T07:58:09.200Z,28.38
2017-05-29T07:59:12.545Z,28.42
2017-05-29T08:00:14.236Z,28.42
2017-05-29T08:01:15.942Z,28.48
2017-05-29T08:02:17.672Z,28.49
2017-05-29T08:03:19.376Z,28.52
2017-05-29T08:04:21.041Z,28.60
2017-05-29T08:05:24.537Z,28.56
2017-05-29T08:06:26.217Z,28.59
2017-05-29T08:07:27.944Z,28.69
2017-05-29T08:08:30.683Z,28.64
2017-05-29T08:09:32.351Z,28.69
2017-05-29T08:10:34.014Z,28.72
2017-05-29T08:11:35.711Z,28.74
2017-05-29T08:12:37.454Z,28.75
2017-05-29T08:13:39.145Z,28.70
2017-05-29T08:14:40.834Z,28.81
2017-05-29T08:15:43.027Z,28.88
2017-05-29T08:16:44.725Z,28.85
2017-05-29T08:17:46.448Z,28.88
2017-05-29T08:18:48.140Z,28.88
2017-05-29T08:19:49.780Z,28.89
2017-05-29T08:20:51.417Z,28.89
2017-05-29T08:21:53.179Z,28.89
2017-05-29T08:23:34.394Z,28.97
2017-05-29T08:24:36.040Z,28.98
2017-05-29T08:25:37.725Z,29.10
2017-05-29T08:26:39.427Z,29.01
2017-05-29T08:27:41.139Z,29.14
2017-05-29T08:28:42.782Z,29.10
2017-05-29T08:29:44.505Z,29.17
2017-05-29T08:30:46.152Z,29.16
2017-05-29T08:31:47.794Z,29.17
2017-05-29T08:32:49.501Z,29.20
2017-05-29T08:33:51.148Z,29.23
2017-05-29T08:34:52.783Z,29.26
2017-05-29T08:35:54.434Z,29.24
2017-05-29T08:36:56.097Z,29.22
2017-05-29T08:37:57.779Z,29.29
2017-05-29T08:38:59.442Z,29.29
2017-05-29T08:40:01.129Z,29.34
2017-05-29T08:41:02.774Z,29.38
2017-05-29T08:42:04.410Z,29.34
2017-05-29T08:43:06.166Z,29.44
2017-05-29T08:44:07.839Z,29.31
2017-05-29T08:45:09.833Z,29.34
2017-05-29T08:46:11.490Z,29.31
2017-05-29T08:47:13.170Z,29.31
2017-05-29T08:48:14.854Z,29.39
2017-05-29T08:49:16.518Z,29.44
2017-05-29T08:50:18.207Z,29.49
2017-05-29T08:51:19.874Z,29.49
2017-05-29T08:52:21.533Z,29.51
2017-05-29T08:53:23.238Z,29.51
2017-05-29T08:54:24.887Z,29.53
2017-05-29T08:55:26.511Z,29.59
2017-05-29T08:56:28.133Z,29.54
2017-05-29T08:57:29.858Z,29.65
2017-05-29T08:58:31.512Z,29.66
2017-05-29T08:59:33.223Z,29.69
2017-05-29T09:00:34.858Z,29.72
2017-05-29T09:01:36.527Z,29.61
2017-05-29T09:02:38.235Z,29.69
2017-05-29T09:03:39.920Z,29.65
2017-05-29T09:04:41.615Z,29.68
2017-05-29T09:05:43.262Z,29.69
2017-05-29T09:06:44.985Z,29.75
2017-05-29T09:07:46.721Z,29.73
2017-05-29T09:08:48.508Z,29.76
2017-05-29T09:09:50.203Z,29.79
2017-05-29T09:10:51.855Z,29.84
2017-05-29T09:11:53.519Z,29.84
2017-05-29T09:12:55.207Z,29.91
2017-05-29T09:13:56.950Z,29.93
2017-05-29T09:14:58.640Z,29.87
2017-05-29T09:16:00.427Z,29.91
2017-05-29T09:17:02.118Z,29.95
2017-05-29T09:18:03.789Z,29.90
2017-05-29T09:19:05.449Z,29.88
2017-05-29T09:20:07.161Z,30.00
2017-05-29T09:21:08.919Z,29.90
2017-05-29T09:22:10.583Z,29.97
2017-05-29T09:23:12.270Z,30.08
2017-05-29T09:24:13.903Z,30.06
2017-05-29T09:25:15.551Z,30.05
2017-05-29T09:26:17.389Z,30.09
2017-05-29T09:27:19.068Z,30.06
2017-05-29T09:28:20.742Z,30.18
2017-05-29T09:29:22.359Z,30.21
2017-05-29T09:30:24.093Z,30.15
2017-05-29T09:31:25.841Z,30.16
2017-05-29T09:32:27.467Z,30.25
2017-05-29T09:33:29.791Z,30.18
2017-05-29T09:34:31.441Z,30.18
2017-05-29T09:35:33.173Z,30.23
2017-05-29T09:36:34.880Z,30.24
2017-05-29T09:37:36.600Z,30.19
2017-05-29T09:38:38.328Z,30.27
2017-05-29T09:39:40.020Z,30.30
2017-05-29T09:40:41.701Z,30.31
2017-05-29T09:41:43.394Z,30.25
2017-05-29T09:42:45.069Z,30.39
2017-05-29T09:43:46.817Z,30.37
2017-05-29T09:44:48.529Z,30.34
2017-05-29T09:45:50.306Z,30.31
2017-05-29T09:46:52.029Z,30.39
2017-05-29T09:47:53.754Z,30.28
2017-05-29T09:48:55.453Z,30.28
2017-05-29T09:49:57.165Z,30.28
2017-05-29T09:50:58.875Z,30.35
2017-05-29T09:52:00.564Z,30.31
2017-05-29T09:53:02.283Z,30.35
2017-05-29T09:54:04.053Z,30.21
2017-05-29T09:55:05.745Z,30.34
2017-05-29T09:56:07.493Z,30.35
2017-05-29T09:57:09.223Z,30.32
2017-05-29T09:58:10.922Z,30.39
2017-05-29T09:59:12.658Z,30.40
2017-05-29T10:00:14.367Z,30.43
2017-05-29T10:01:16.110Z,30.48
2017-05-29T10:02:17.800Z,30.40
2017-05-29T10:03:19.477Z,30.47
2017-05-29T10:04:21.370Z,30.44
2017-05-29T10:05:23.068Z,30.44
2017-05-29T10:06:24.761Z,30.43
2017-05-29T10:07:26.454Z,30.54
2017-05-29T10:08:28.146Z,30.47
2017-05-29T10:09:29.900Z,30.46
2017-05-29T10:10:31.602Z,30.48
2017-05-29T10:11:33.386Z,30.53
2017-05-29T10:12:35.070Z,30.57
2017-05-29T10:13:36.772Z,30.51
2017-05-29T10:14:38.490Z,30.53
2017-05-29T10:15:40.155Z,30.54
2017-05-29T10:16:41.874Z,30.61
2017-05-29T10:17:43.529Z,30.61
2017-05-29T10:18:45.180Z,30.61
2017-05-29T10:19:46.965Z,30.62
2017-05-29T10:20:48.673Z,30.59
2017-05-29T10:21:50.331Z,30.62
2017-05-29T10:22:52.099Z,30.65
2017-05-29T10:23:53.713Z,30.68
2017-05-29T10:24:55.453Z,30.69
2017-05-29T10:25:57.110Z,30.65
2017-05-29T10:26:58.747Z,30.61
2017-05-29T10:28:00.393Z,30.69
2017-05-29T10:29:02.040Z,30.66
2017-05-29T10:30:03.748Z,30.68
2017-05-29T10:31:05.407Z,30.66
2017-05-29T10:32:07.130Z,30.65
2017-05-29T10:33:08.790Z,30.68
2017-05-29T10:34:10.491Z,30.62
2017-05-29T10:35:12.277Z,30.72
2017-05-29T10:36:13.967Z,30.66
2017-05-29T10:37:15.625Z,30.68
2017-05-29T10:38:17.326Z,30.66
2017-05-29T10:39:19.055Z,30.65
2017-05-29T10:40:20.804Z,30.63
2017-05-29T10:41:22.661Z,30.59
2017-05-29T10:42:24.336Z,30.63
2017-05-29T10:43:26.003Z,30.66
2017-05-29T10:45:07.243Z,30.66
2017-05-29T10:47:38.623Z,30.59
2017-05-29T10:48:40.322Z,30.62
2017-05-29T10:49:41.933Z,30.62
2017-05-29T10:50:43.643Z,30.66
2017-05-29T10:51:45.286Z,30.65
2017-05-29T10:52:47.033Z,30.54
2017-05-29T10:53:48.829Z,30.57
2017-05-29T10:54:50.475Z,30.50
2017-05-29T10:55:52.139Z,30.54
2017-05-29T10:56:53.771Z,30.44
2017-05-29T10:57:55.498Z,30.47
2017-05-29T10:58:57.132Z,30.40
2017-05-29T10:59:58.774Z,30.50
2017-05-29T11:01:00.426Z,30.44
2017-05-29T11:02:02.105Z,30.40
2017-05-29T11:03:03.843Z,30.40
2017-05-29T11:04:05.559Z,30.48
2017-05-29T11:05:07.212Z,30.46
2017-05-29T11:06:08.876Z,30.46
2017-05-29T11:07:10.518Z,30.51
2017-05-29T11:08:12.241Z,30.47
2017-05-29T11:09:13.895Z,30.47
2017-05-29T11:10:15.537Z,30.51
2017-05-29T11:11:17.211Z,30.47
2017-05-29T11:12:18.830Z,30.47
2017-05-29T11:13:20.613Z,30.40
2017-05-29T11:14:22.273Z,30.39
2017-05-29T11:15:23.974Z,30.46
2017-05-29T11:16:25.625Z,30.40
2017-05-29T11:17:27.301Z,30.39
2017-05-29T11:18:29.002Z,30.46
2017-05-29T11:19:30.632Z,30.40
2017-05-29T11:20:32.290Z,30.46
2017-05-29T11:21:33.945Z,30.39
2017-05-29T11:22:35.629Z,30.43
2017-05-29T11:23:37.237Z,30.40
2017-05-29T11:24:38.899Z,30.37
2017-05-29T11:25:40.546Z,30.35
2017-05-29T11:26:42.214Z,30.34
2017-05-29T11:27:43.884Z,30.30
2017-05-29T11:28:45.545Z,30.37
2017-05-29T11:29:47.255Z,30.34
2017-05-29T11:30:48.896Z,30.35
2017-05-29T11:31:50.542Z,30.31
2017-05-29T11:32:52.311Z,30.25
2017-05-29T11:33:53.963Z,30.31
2017-05-29T11:37:04.917Z,30.37
2017-05-29T11:38:06.506Z,30.28
2017-05-29T11:39:08.184Z,30.32
2017-05-29T11:40:09.824Z,30.30
2017-05-29T11:41:11.437Z,30.28
2017-05-29T11:42:13.142Z,30.37
2017-05-29T11:43:14.804Z,30.32
2017-05-29T11:44:16.424Z,30.25
2017-05-29T11:45:18.142Z,30.27
2017-05-29T11:46:19.780Z,30.35
2017-05-29T11:47:21.501Z,30.32
2017-05-29T11:48:23.180Z,30.35
2017-05-29T11:49:24.913Z,30.35
2017-05-29T11:50:26.589Z,30.37
2017-05-29T11:51:28.306Z,30.32
2017-05-29T11:52:30.066Z,30.32
2017-05-29T11:53:31.716Z,30.27
2017-05-29T11:54:33.399Z,30.35
2017-05-29T11:55:35.103Z,30.37
2017-05-29T11:57:16.815Z,30.34
2017-05-29T11:58:58.026Z,30.44
2017-05-29T11:59:59.665Z,30.37
2017-05-29T12:01:01.317Z,30.32
2017-05-29T12:02:02.998Z,30.31
2017-05-29T12:03:04.640Z,30.39
2017-05-29T12:04:06.305Z,30.28
2017-05-29T12:05:07.953Z,30.34
2017-05-29T12:06:09.680Z,30.35
2017-05-29T12:07:11.431Z,30.34
2017-05-29T12:08:13.060Z,30.27
2017-05-29T12:09:14.733Z,30.28
2017-05-29T12:10:16.361Z,30.24
2017-05-29T12:11:18.029Z,30.18
2017-05-29T12:12:19.700Z,30.19
2017-05-29T12:13:21.437Z,30.13
2017-05-29T12:14:23.083Z,30.30
2017-05-29T12:15:24.769Z,30.16
2017-05-29T12:16:26.524Z,30.15
2017-05-29T12:17:28.159Z,30.16
2017-05-29T12:18:29.871Z,30.21
2017-05-29T12:19:31.512Z,30.15
2017-05-29T12:20:33.203Z,30.16
2017-05-29T12:21:34.870Z,30.24
2017-05-29T12:22:36.533Z,30.16
2017-05-29T12:23:38.245Z,30.24
2017-05-29T12:24:39.964Z,30.09
2017-05-29T12:25:41.625Z,30.24
2017-05-29T12:26:43.247Z,30.13
2017-05-29T12:27:44.912Z,30.09
2017-05-29T12:28:46.575Z,30.24
2017-05-29T12:29:48.217Z,30.16
2017-05-29T12:30:49.838Z,30.19
2017-05-29T12:31:51.519Z,30.24
2017-05-29T12:32:53.152Z,30.15
2017-05-29T12:33:54.812Z,30.16
2017-05-29T12:34:56.497Z,30.09
2017-05-29T12:35:58.229Z,30.09
2017-05-29T12:36:59.906Z,30.13
2017-05-29T12:38:01.579Z,30.05
2017-05-29T12:39:03.282Z,30.03
2017-05-29T12:40:04.988Z,30.03
2017-05-29T12:41:06.704Z,30.02
2017-05-29T12:42:08.312Z,30.00
2017-05-29T12:43:09.963Z,30.03
2017-05-29T12:44:11.586Z,30.09
2017-05-29T12:45:13.314Z,29.98
2017-05-29T12:46:15.018Z,30.00
2017-05-29T12:47:16.712Z,30.08
2017-05-29T12:48:18.358Z,30.05
2017-05-29T12:49:20.088Z,30.09
2017-05-29T12:50:21.872Z,30.03
2017-05-29T12:51:23.594Z,30.06
2017-05-29T12:52:25.337Z,30.06
2017-05-29T12:53:27.032Z,30.03
2017-05-29T12:54:28.752Z,30.10
2017-05-29T12:55:30.538Z,29.98
2017-05-29T12:56:32.370Z,30.05
2017-05-29T12:57:34.095Z,30.09
2017-05-29T12:58:35.827Z,30.00
2017-05-29T12:59:37.496Z,30.05
2017-05-29T13:00:39.188Z,30.00
2017-05-29T13:01:40.996Z,30.06
2017-05-29T13:02:42.718Z,30.09
2017-05-29T13:03:44.385Z,30.00
2017-05-29T13:04:46.080Z,30.02
2017-05-29T13:05:47.784Z,29.97
2017-05-29T13:06:49.544Z,30.02
2017-05-29T13:07:51.256Z,29.90
2017-05-29T13:08:52.953Z,29.95
2017-05-29T13:10:34.171Z,29.88
2017-05-29T13:11:35.823Z,30.00
2017-05-29T13:12:37.520Z,30.00
2017-05-29T13:13:39.177Z,29.88
2017-05-29T13:14:40.846Z,29.90
2017-05-29T13:15:42.483Z,29.91
2017-05-29T13:16:44.140Z,29.95
2017-05-29T13:17:45.852Z,29.95
2017-05-29T13:18:47.509Z,29.94
2017-05-29T13:19:49.132Z,29.95
2017-05-29T13:20:50.813Z,29.93
2017-05-29T13:21:52.480Z,29.94
2017-05-29T13:22:54.181Z,29.91
2017-05-29T13:23:55.802Z,29.95
2017-05-29T13:24:57.476Z,29.90
2017-05-29T13:25:59.176Z,29.93
2017-05-29T13:27:00.932Z,29.93